AirNav  
 
 710 users online  

12D Tower Municipal Airport
Tower, Minnesota, USA

GOING TO TOWER?


FAA INFORMATION EFFECTIVE 26 APRIL 2018

Location

FAA Identifier: 12D
Lat/Long: 47-49-05.3600N / 092-17-09.8400W
47-49.089333N / 092-17.164000W
47.8181556 / -92.2860667
(estimated)
Elevation: 1369.9 ft. / 417.5 m (surveyed)
Variation: 01W (2010)
From city: 1 mile NW of TOWER, MN
Time zone: UTC -5 (UTC -6 during Standard Time)
Zip code: 55790

Airport Operations

Airport use: Open to the public
Activation date: 12/1959
Control tower: no
ARTCC: MINNEAPOLIS CENTER
FSS: PRINCETON FLIGHT SERVICE STATION
NOTAMs facility: PNM (NOTAM-D service available)
Attendance: UNATNDD
Wind indicator: lighted
Segmented circle: no
Lights: MIRL RY 08/26 PRESET MEDIUM INTNSTY TO INCREASE INTNSTY & ACTVT - CTAF.

Airport Communications

CTAF: 122.9
WX AWOS-3 at CQM (16 nm W): 118.175 (218-666-2539)
WX AWOS-3 at ELO (18 nm E): 132.025 (218-365-3814)
  • APP/DEP SVC PRVDD BY MINNEAPOLIS CENTER ON 127.9/281.45 (DULUTH RCAG).

Nearby radio navigation aids

VOR radial/distance  VOR name  Freq  Var
ELOr269/18.4ELY VOR/DME109.6000E
EVMr019/25.3EVELETH VOR/DME108.2001E
HIBr027/35.3HIBBING VOR/DME110.8002E

 
NDB name  Hdg/Dist  Freq  Var  ID
ORR115/26.134102EORB --- .-. -...
SCOTT165/27.638501WSCG ... -.-. --.

Airport Services

Fuel available: 100LL
SELF SERVICE FUEL AVBL 24 HRS WITH CREDIT CARD.
Parking: tiedowns

Runway Information

Runway 8/26

Dimensions: 3400 x 75 ft. / 1036 x 23 m
Surface: asphalt, in good condition
Runway edge lights: medium intensity
RUNWAY 8  RUNWAY 26
Latitude: 47-49.075667N47-49.103000N
Longitude: 092-17.578667W092-16.749333W
Elevation: 1365.8 ft.1369.9 ft.
Gradient: 0.2%0.2%
Traffic pattern: leftright
Runway heading: 088 magnetic, 087 true268 magnetic, 267 true
Markings: nonprecision, in good conditionnonprecision, in good condition
Touchdown point: yes, no lightsyes, no lights
Obstructions: 43 ft. trees, 1038 ft. from runway, 22 ft. right of centerline, 19:1 slope to clearnone
4 FT BRUSH 79 FT FROM RY END 111 FT R.

Runway 14W/32W

Dimensions: 5000 x 200 ft. / 1524 x 61 m
Surface: water
RUNWAY 14W  RUNWAY 32W
Traffic pattern: leftleft

Airport Ownership and Management from official FAA records

Ownership: Publicly-owned
Owner: CITY OF TOWER
BOX 576, 602 MAIN ST.
TOWER, MN 55790
Phone 218-753-4070
Manager: JOHN BURGESS
BOX 576, 602 MAIN ST.
TOWER, MN 55790
Phone (218) 780-5902

Airport Operational Statistics

Aircraft based on the field: 15
Single engine airplanes: 14
Ultralights: 1
    
Aircraft operations: avg 71/week *
73% local general aviation
27% transient general aviation
* for 12-month period ending 30 September 2016

Additional Remarks

270 FT HILL 2500 FT SOUTHEAST OF ARPT.
ULTRALIGHT TRAFFIC ON & INVOF ARPT.

Instrument Procedures

NOTE: All procedures below are presented as PDF files. If you need a reader for these files, you should download the free Adobe Reader.

NOT FOR NAVIGATION. Please procure official charts for flight.
FAA instrument procedures published for use from 26 April 2018 at 901Z to 24 May 2018 at 0900Z.

 
IAPs - Instrument Approach Procedures
RNAV (GPS) RWY 08   download (183KB)
RNAV (GPS) RWY 26   download (186KB)
NOTE: Special Take-Off Minimums/Departure Procedures apply   download (156KB)

Other nearby airports with instrument procedures:

KCQM - Cook Municipal Airport (16 nm W)
KELO - Ely Municipal Airport (18 nm E)
KEVM - Eveleth-Virginia Municipal Airport (25 nm S)
KORB - Orr Regional Airport (26 nm NW)
KHIB - Range Regional Airport (34 nm SW)
 
Loc | Ops | Rwys | IFR | FBO | Links
Com | Nav | Svcs | Stats | Notes

AirNav Hotels Sweepstakes
 
Area around 12D (Tower Municipal Airport)
 
Road maps at: MapQuest Bing Google
 
Aerial photo
WARNING: Photo may not be current or correct
Aerial photo of 12D (Tower Municipal Airport)
Do you have a better or more recent aerial photo of Tower Municipal Airport that you would like to share? If so, please send us your photo.

 
Sectional chart

 
Airport distance calculator
Flying to Tower Municipal Airport? Find the distance to fly.

From to 12D

Sunrise and sunset
Times for 26-Apr-2018
 Local
(UTC-5)
 Zulu
(UTC)
Morning civil twilight05:2710:27
Sunrise06:0111:01
Sunset20:1301:13
Evening civil twilight20:4701:47

Current date and time
Zulu (UTC)  27-Apr-2018 04:01:32
Local (UTC-5)  26-Apr-2018 23:01:32
 
METAR
KCQM 
16nm W 
270355Z AUTO 00000KT 10SM CLR M01/M04 A2987 RMK AO2
KELO 
19nm E 
270355Z AUTO 00000KT 10SM CLR M01/M06 A2987 RMK AO2
KORB 
26nm NW 
270353Z AUTO 00000KT 10SM SCT120 02/M06 A2984 RMK AO2
KEVM 
27nm S 
270355Z AUTO 00000KT 10SM CLR M01/M05 A2988 RMK AO2 T10081054
KCDD 
29nm NW 
270350Z AUTO 00000KT 10SM CLR M02/M04 A2988 RMK AO2
TAF
KHIB 
34nm SW 
262003Z 2620/2718 32015G20KT P6SM BKN050 FM270000 35005KT P6SM SCT090 FM270600 27005KT P6SM VCSH BKN090 FM271400 34010G19KT P6SM BKN025
NOTAMs
Click for the latest NOTAMs
NOTAMs are issued by the DoD/FAA and will open in a separate window not controlled by AirNav.

 

 
 

FBO, Fuel Providers, and Aircraft Ground Support

  
 Business Name 
 
 Contact 
 
 Services / Description 
 
Fuel Prices
 
Comments
  
Tower Municipal Airport 218-753-4070
no information available

If you are affiliated with Tower Municipal Airport and would like to show here your services, contact info, web link, logo, and more, click here
100LL
SS $4.30 
 Updated 19-Apr-2018
 
   write
SS=Self service
Update Fuel Prices
 

Would you like to see your business listed on this page?

 If your business provides an interesting product or service to pilots, flight crews, aircraft, or users of the Tower Municipal Airport, you should consider listing it here.  To start the listing process, click on the button below
 
Add a business
 

Other Pages about Tower Municipal Airport

cityoftower.com/towerairport.html
PDF page(s) from the Minnesota Airport Directory
PDF page(s) from the Minnesota Airport Directory (seaplane base)
 
Update a link
 
Copyright © AirNav, LLC. All rights reserved. Privacy Policy  Contact